Terminal Aerodrome Forecast
Issued by NWS Sterling, VA

Current Version | Previous Version | Graphics & Text | Print | Product List | Glossary On
Versions: 1 2 3 4 5 6 7 8 9 10 11 12 13 14 15 16 17 18 19 20 21 22 23 24
000
FTUS41 KLWX 190538
TAFIAD
TAF
KIAD 190538Z 1906/2012 17004KT P6SM BKN250
     FM190700 05005KT P6SM BKN250
     FM191500 09011KT P6SM SCT200
     FM192200 10010KT P6SM -RA OVC090
     FM200100 09012KT 5SM -RA OVC035
     FM200400 09015KT 3SM RA BR OVC010
     FM200700 10012KT 3SM RA BR OVC008
     FM201100 21006KT P6SM OVC008=

USA.gov is the U.S. government's official web portal to all federal, state and local government web resources and services.